Flight Track Log - Related Links

Times and Time Zones

All times are in EDT time to prevent confusion due to time zone crossing. See the AAY894 flight status page for this flight to view local times or setup timezone preferences in your user account.

Time Position Orientation Groundspeed Altitude Reporting Facility
EDT Latitude Longitude Course Direction KTS MPH feet Rate Location/Type
Thu 07:49:00 AM 27.9333 -82.7000 41° Northeast 167 192 800  Level Tampa TRACON
Thu 07:49:30 AM 27.9500 -82.6833 41° Northeast 179 206 1,900 1,667 Climbing Tampa TRACON
Thu 07:50:30 AM 28.0000 -82.6500 30° Northeast 247 284 3,300 2,209 Climbing Tampa TRACON
Thu 07:52:13 AM 28.1300 -82.6275 North 276 318 7,900 2,618 Climbing Miami Center
Thu 07:53:15 AM 28.2106 -82.6122 North 287 330 10,500 1,805 Climbing Miami Center
Thu 07:54:16 AM 28.3017 -82.5939 10° North 329 379 11,600 1,475 Climbing Miami Center
Thu 07:55:17 AM 28.4081 -82.5728 10° North 380 437 13,500 2,262 Climbing Miami Center
Thu 07:56:18 AM 28.5428 -82.5458 10° North 406 467 16,200 2,244 Climbing Miami Center
Thu 07:57:20 AM 28.6569 -82.5225 10° North 425 489 18,100 1,805 Climbing Miami Center
Thu 07:58:21 AM 28.7772 -82.4994 10° North 434 499 19,900 1,770 Climbing Miami Center
Thu 07:59:22 AM 28.9017 -82.5092 356° North 451 519 21,700 1,574 Climbing Miami Center
Thu 08:00:23 AM 29.0283 -82.5233 354° North 455 524 23,100 1,415 Climbing Miami Center
Thu 08:01:25 AM 29.1553 -82.5531 348° North 464 534 24,600 1,512 Climbing Miami Center
Thu 08:02:26 AM 29.2808 -82.5933 344° North 469 540 26,200 1,525 Climbing Miami Center
Thu 08:03:27 AM 29.4044 -82.6317 345° North 467 537 27,700 1,574 Climbing Miami Center
Thu 08:04:28 AM 29.5531 -82.6511 354° North 457 526 29,400 1,415 Climbing Miami Center
Thu 08:05:30 AM 29.6789 -82.6378 North 457 526 30,600 927 Climbing Miami Center
Thu 08:06:31 AM 29.8053 -82.6250 North 457 526 31,300 885 Climbing Miami Center
Thu 08:07:32 AM 29.9322 -82.6108 North 460 529 32,400 829 Climbing Miami Center
Thu 08:08:34 AM 30.0569 -82.5989 North 457 526 33,000 244 Climbing Miami Center
Thu 08:09:35 AM 30.1894 -82.5842 North 455 524 32,900  Descending Miami Center
Thu 08:10:39 AM 30.3119 -82.5750 North 456 525 33,000 48 Climbing Jacksonville Center
Thu 08:11:39 AM 30.4456 -82.5600 North 449 517 33,000 -50 Level Jacksonville Center
Thu 08:12:39 AM 30.5689 -82.5500 North 444 511 32,900  Descending Jacksonville Center
Thu 08:13:39 AM 30.6942 -82.5472 North 439 505 33,000 50 Climbing Jacksonville Center
Thu 08:14:39 AM 30.8214 -82.5442 North 439 505 33,000 -50 Level Jacksonville Center
Thu 08:15:39 AM 30.9489 -82.5364 North 445 512 32,900 -50 Descending Jacksonville Center
Thu 08:16:39 AM 31.0742 -82.5311 North 445 512 32,900  Level Jacksonville Center
Thu 08:17:39 AM 31.2014 -82.5258 North 450 518 32,900  Level Jacksonville Center
Thu 08:18:39 AM 31.3286 -82.5206 North 450 518 32,900 26 Level Jacksonville Center
Thu 08:21:29 AM 31.6825 -82.4867 North 460 529 33,000 26 Climbing Atlanta Center
Thu 08:22:29 AM 31.8097 -82.4675 North 438 504 33,000  Level Atlanta Center
Thu 08:23:29 AM 31.9431 -82.4456 North 433 498 33,000  Level Atlanta Center
Thu 08:24:29 AM 32.0533 -82.4264 North 433 498 33,000  Level Atlanta Center
Thu 08:25:29 AM 32.1783 -82.4069 North 444 511 33,000  Level Atlanta Center
Thu 08:26:29 AM 32.3136 -82.3922 North 444 511 33,000  Level Atlanta Center
Thu 08:27:29 AM 32.4386 -82.3653 10° North 444 511 33,000  Level Atlanta Center
Thu 08:28:29 AM 32.5617 -82.3481 North 444 511 33,000  Level Atlanta Center
Thu 08:29:29 AM 32.6822 -82.3261 North 444 511 33,000  Level Atlanta Center
Thu 08:30:29 AM 32.7947 -82.3117 North 444 511 33,000  Level Atlanta Center
Thu 08:31:29 AM 32.9197 -82.2892 North 444 511 33,000  Level Atlanta Center
Thu 08:32:29 AM 33.0425 -82.2694 North 444 511 33,000  Level Atlanta Center
Thu 08:33:29 AM 33.1717 -82.2494 North 450 518 33,000  Level Atlanta Center
Thu 08:34:29 AM 33.2967 -82.2294 North 450 518 33,000  Level Atlanta Center
Thu 08:35:29 AM 33.4217 -82.2069 North 450 518 33,000  Level Atlanta Center
Thu 08:36:29 AM 33.5506 -82.1867 North 455 524 33,000  Level Atlanta Center
Thu 08:37:29 AM 33.6778 -82.1642 North 460 529 33,000  Level Atlanta Center
Thu 08:38:29 AM 33.8067 -82.1414 North 460 529 33,000  Level Atlanta Center
Thu 08:39:29 AM 33.9461 -82.1206 North 465 535 33,000  Level Atlanta Center
Thu 08:40:29 AM 34.0753 -82.0978 North 465 535 33,000  Level Atlanta Center
Thu 08:41:29 AM 34.2022 -82.0747 North 465 535 33,000  Level Atlanta Center
Thu 08:42:29 AM 34.3272 -82.0542 North 465 535 33,000  Level Atlanta Center
Thu 08:43:29 AM 34.4542 -82.0311 North 465 535 33,000  Level Atlanta Center
Thu 08:44:29 AM 34.5811 -82.0128 North 460 529 33,000  Level Atlanta Center
Thu 08:45:29 AM 34.7081 -81.9869 North 460 529 33,000  Level Atlanta Center
Thu 08:46:29 AM 34.8369 -81.9661 North 460 529 33,000  Level Atlanta Center
Thu 08:47:29 AM 34.9514 -81.9481 North 460 529 33,000  Level Atlanta Center
Thu 08:48:29 AM 35.0761 -81.9222 10° North 460 529 33,000  Level Atlanta Center
Thu 08:49:29 AM 35.2028 -81.8858 13° North 460 529 33,000  Level Atlanta Center
Thu 08:50:29 AM 35.3275 -81.8494 13° North 460 529 33,000  Level Atlanta Center
Thu 08:51:29 AM 35.4561 -81.8131 13° North 466 536 33,000  Level Atlanta Center
Thu 08:52:29 AM 35.5972 -81.7733 13° North 466 536 33,000  Level Atlanta Center
Thu 08:53:29 AM 35.7239 -81.7367 13° North 466 536 33,000  Level Atlanta Center
Thu 08:54:29 AM 35.8525 -81.6997 13° North 466 536 33,000  Level Atlanta Center
Thu 08:55:29 AM 35.9789 -81.6625 13° North 466 536 33,000  Level Atlanta Center
Thu 08:56:29 AM 36.1075 -81.6228 14° North 466 536 33,000  Level Atlanta Center
Thu 08:57:29 AM 36.2361 -81.5881 12° North 471 542 33,000  Level Atlanta Center
Thu 08:58:29 AM 36.3625 -81.5483 14° North 471 542 33,000  Level Atlanta Center
Thu 08:59:29 AM 36.4931 -81.5106 13° North 471 542 33,000  Level Atlanta Center
Thu 09:00:29 AM 36.6217 -81.4703 14° North 471 542 33,000  Level Atlanta Center
Thu 09:02:59 AM 36.9186 -81.3828 13° North 475 547 33,000  Level Indianapolis Center
Thu 09:04:00 AM 37.0653 -81.3389 13° North 475 547 33,000  Level Indianapolis Center
Thu 09:05:02 AM 37.1939 -81.3011 13° North 476 548 33,000  Level Indianapolis Center
Thu 09:06:04 AM 37.3319 -81.2600 13° North 475 547 33,000  Level Indianapolis Center
Thu 09:07:05 AM 37.4611 -81.2214 13° North 475 547 33,000  Level Indianapolis Center
Thu 09:08:07 AM 37.5919 -81.1825 13° North 477 549 33,000  Level Indianapolis Center
Thu 09:09:09 AM 37.7231 -81.1419 14° North 480 552 33,000  Level Indianapolis Center
Thu 09:10:10 AM 37.8653 -81.0944 15° North 480 552 33,000  Level Indianapolis Center
Thu 09:11:12 AM 37.9961 -81.0581 12° North 480 552 33,000  Level Indianapolis Center
Thu 09:12:13 AM 38.1264 -81.0214 12° North 480 552 33,000  Level Indianapolis Center
Thu 09:13:15 AM 38.2561 -80.9856 12° North 480 552 33,000  Level Indianapolis Center
Thu 09:14:17 AM 38.3858 -80.9472 13° North 480 552 33,000  Level Indianapolis Center
Thu 09:15:19 AM 38.5161 -80.9083 13° North 480 552 33,000  Level Indianapolis Center
Thu 09:16:20 AM 38.6733 -80.8614 13° North 481 554 33,000  Level Indianapolis Center
Thu 09:17:22 AM 38.8036 -80.8233 13° North 482 555 33,000  Level Indianapolis Center
Thu 09:18:24 AM 38.9333 -80.7844 13° North 482 555 33,000  Level Indianapolis Center
Thu 09:19:26 AM 39.0650 -80.7444 13° North 483 556 33,000  Level Indianapolis Center
Thu 09:20:28 AM 39.1969 -80.7058 13° North 483 556 33,000  Level Indianapolis Center
Thu 09:21:30 AM 39.3306 -80.6647 13° North 490 564 33,000  Level Indianapolis Center
Thu 09:22:32 AM 39.4931 -80.6194 12° North 495 570 33,000  Level Indianapolis Center
Thu 09:23:33 AM 39.6261 -80.5783 13° North 495 570 33,000  Level Indianapolis Center
Thu 09:24:55 AM 39.7936 -80.5303 12° North 491 565 33,000  Level Cleveland Center
Thu 09:25:58 AM 39.9286 -80.4878 14° North 493 567 33,000  Level Cleveland Center
Thu 09:27:00 AM 40.0892 -80.4389 13° North 494 568 33,000  Level Cleveland Center
Thu 09:28:02 AM 40.2236 -80.3978 13° North 494 568 33,000  Level Cleveland Center
Thu 09:29:03 AM 40.3608 -80.3569 13° North 494 568 33,000 -488 Level Cleveland Center
Thu 09:30:05 AM 40.4897 -80.3150 14° North 504 580 32,000 -1,016 Descending Cleveland Center
Thu 09:31:07 AM 40.6528 -80.2642 13° North 503 579 30,900 -1,016 Descending Cleveland Center
Thu 09:32:09 AM 40.7906 -80.2211 13° North 505 581 29,900 -919 Descending Cleveland Center
Thu 09:33:11 AM 40.9119 -80.1497 24° Northeast 517 595 29,000 -919 Descending Cleveland Center
Thu 09:34:13 AM 41.0403 -80.0561 29° Northeast 521 600 28,000 -484 Descending Cleveland Center
Thu 09:35:15 AM 41.1756 -79.9592 28° Northeast 521 600 28,000  Level Cleveland Center
Thu 09:36:17 AM 41.2994 -79.8689 29° Northeast 515 593 28,000  Level Cleveland Center
Thu 09:37:19 AM 41.4503 -79.7578 29° Northeast 515 593 28,000  Level Cleveland Center
Thu 09:38:21 AM 41.5764 -79.6656 29° Northeast 515 593 28,000  Level Cleveland Center
Thu 09:39:23 AM 41.7022 -79.5728 29° Northeast 517 595 28,000 -290 Level Cleveland Center
Thu 09:40:25 AM 41.8281 -79.4806 29° Northeast 517 595 27,400 -1,258 Descending Cleveland Center
Thu 09:41:27 AM 41.9522 -79.3856 30° Northeast 517 595 25,400 -1,984 Descending Cleveland Center
Thu 09:42:29 AM 42.0717 -79.2969 29° Northeast 498 573 23,300 -2,177 Descending Cleveland Center
Thu 09:43:31 AM 42.2083 -79.1936 29° Northeast 476 548 20,900 -2,274 Descending Cleveland Center
Thu 09:44:33 AM 42.3169 -79.1111 29° Northeast 454 522 18,600 -2,565 Descending Cleveland Center
Thu 09:45:35 AM 42.4203 -79.0331 29° Northeast 433 498 15,600 -3,097 Descending Cleveland Center
Thu 09:46:37 AM 42.5292 -78.9506 29° Northeast 411 473 12,200 -2,758 Descending Cleveland Center
Thu 09:47:39 AM 42.6339 -78.9094 16° North 380 437 9,900 -1,073 Descending Cleveland Center
Thu 09:48:40 AM 42.7167 -78.9094 360° North 311 358 10,000 -585 Climbing Cleveland Center
Thu 09:49:42 AM 42.8067 -78.9158 357° North 310 357 8,700 -1,452 Descending Cleveland Center
Thu 09:50:44 AM 42.8947 -78.9239 356° North 307 353 7,000 -1,113 Descending Cleveland Center
Thu 09:51:46 AM 42.9814 -78.9239 360° North 302 348 6,400 -871 Descending Cleveland Center
Thu 09:52:48 AM 43.0617 -78.9144 North 284 327 5,200 -677 Descending Cleveland Center
Thu 09:53:50 AM 43.1361 -78.9103 North 265 305 5,000 -145 Descending Cleveland Center
Thu 09:54:52 AM 43.1747 -78.8633 42° Northeast 204 235 4,900 -823 Descending Cleveland Center
Thu 09:55:54 AM 43.1769 -78.7908 88° East 197 227 3,300 -897 Descending Cleveland Center
Thu 09:57:46 AM 43.1500 -78.6833 109° East 165 190 2,300 -315 Descending Buffalo TRACON
Thu 10:00:02 AM 43.1172 -78.8131 251° West 170 196 2,000 -242 Descending Cleveland Center
Thu 10:01:04 AM 43.1075 -78.8744 258° West 169 194 1,500 -484 Descending Cleveland Center

Login

Don't have an account? Register now (free) for customized features, flight alerts, and more!